Aviation Digital Data Service (ADDS)

Output produced by METARs form (2037 UTC 08 August 2020)
found at http://www.aviationweather.gov/metar/data/
 
KSAN 081736Z 0818/0924 VRB03KT P6SM SCT012 
     FM081900 29011KT P6SM SCT015 
     FM090300 30005KT P6SM FEW012 
     FM090600 VRB03KT P6SM OVC012 
     FM091630 VRB03KT P6SM SCT012 
     FM091900 29011KT P6SM SCT015